地図

経路データ

SID SEASON NUMBER BASIN SUBBASIN NAME ISO_TIME NATURE LAT LON WMO_WIND WMO_PRES WMO_AGENCY TRACK_TYPE DIST2LAND LANDFALL IFLAG USA_AGENCY USA_ATCF_ID USA_LAT USA_LON USA_RECORD USA_STATUS USA_WIND USA_PRES USA_SSHS USA_R34_NE USA_R34_SE USA_R34_SW USA_R34_NW USA_R50_NE USA_R50_SE USA_R50_SW USA_R50_NW USA_R64_NE USA_R64_SE USA_R64_SW USA_R64_NW USA_POCI USA_ROCI USA_RMW USA_EYE TOKYO_LAT TOKYO_LON TOKYO_GRADE TOKYO_WIND TOKYO_PRES TOKYO_R50_DIR TOKYO_R50_LONG TOKYO_R50_SHORT TOKYO_R30_DIR TOKYO_R30_LONG TOKYO_R30_SHORT TOKYO_LAND CMA_LAT CMA_LON CMA_CAT CMA_WIND CMA_PRES HKO_LAT HKO_LON HKO_CAT HKO_WIND HKO_PRES NEWDELHI_LAT NEWDELHI_LON NEWDELHI_GRADE NEWDELHI_WIND NEWDELHI_PRES NEWDELHI_CI NEWDELHI_DP NEWDELHI_POCI REUNION_LAT REUNION_LON REUNION_TYPE REUNION_WIND REUNION_PRES REUNION_TNUM REUNION_CI REUNION_RMW REUNION_R34_NE REUNION_R34_SE REUNION_R34_SW REUNION_R34_NW REUNION_R50_NE REUNION_R50_SE REUNION_R50_SW REUNION_R50_NW REUNION_R64_NE REUNION_R64_SE REUNION_R64_SW REUNION_R64_NW BOM_LAT BOM_LON BOM_TYPE BOM_WIND BOM_PRES BOM_TNUM BOM_CI BOM_RMW BOM_R34_NE BOM_R34_SE BOM_R34_SW BOM_R34_NW BOM_R50_NE BOM_R50_SE BOM_R50_SW BOM_R50_NW BOM_R64_NE BOM_R64_SE BOM_R64_SW BOM_R64_NW BOM_ROCI BOM_POCI BOM_EYE BOM_POS_METHOD BOM_PRES_METHOD NADI_LAT NADI_LON NADI_CAT NADI_WIND NADI_PRES WELLINGTON_LAT WELLINGTON_LON WELLINGTON_WIND WELLINGTON_PRES DS824_LAT DS824_LON DS824_STAGE DS824_WIND DS824_PRES TD9636_LAT TD9636_LON TD9636_STAGE TD9636_WIND TD9636_PRES TD9635_LAT TD9635_LON TD9635_WIND TD9635_PRES TD9635_ROCI NEUMANN_LAT NEUMANN_LON NEUMANN_CLASS NEUMANN_WIND NEUMANN_PRES MLC_LAT MLC_LON MLC_CLASS MLC_WIND MLC_PRES USA_GUST BOM_GUST BOM_GUST_PER REUNION_GUST REUNION_GUST_PER USA_SEAHGT USA_SEARAD_NE USA_SEARAD_SE USA_SEARAD_SW USA_SEARAD_NW STORM_SPEED STORM_DIR
1995277N07141 1995 76 WP MM TED 1995-10-03 12:00:00 NR 6.70000 140.900 main 977 953 O_____________ jtwc_wp WP241995 6.70000 140.900 15 -1 16 274
1995277N07141 1995 76 WP MM TED 1995-10-03 15:00:00 NR 6.75276 140.100 main 964 931 P_____________ WP241995 6.75276 140.100 15 -1 16 274
1995277N07141 1995 76 WP MM TED 1995-10-03 18:00:00 NR 6.80000 139.300 main 931 899 O_____________ jtwc_wp WP241995 6.80000 139.300 15 -1 16 273
1995277N07141 1995 76 WP MM TED 1995-10-03 21:00:00 NR 6.84237 138.500 main 899 883 P_____________ WP241995 6.84237 138.500 15 -1 16 274
1995277N07141 1995 76 WP MM TED 1995-10-04 00:00:00 NR 6.90000 137.700 main 883 870 O_____________ jtwc_wp WP241995 6.90000 137.700 15 -1 16 275
1995277N07141 1995 76 WP MM TED 1995-10-04 03:00:00 NR 6.98487 136.900 main 874 868 P_____________ WP241995 6.98487 136.900 15 -1 16 277
1995277N07141 1995 76 WP MM TED 1995-10-04 06:00:00 NR 7.10000 136.100 main 875 874 O_____________ jtwc_wp WP241995 7.10000 136.100 15 -1 16 279
1995277N07141 1995 76 WP MM TED 1995-10-04 09:00:00 NR 7.23490 135.292 main 885 845 P_____________ WP241995 7.23490 135.292 15 -1 16 281
1995277N07141 1995 76 WP MM TED 1995-10-04 12:00:00 NR 7.40000 134.500 main 845 794 O_____________ jtwc_wp WP241995 7.40000 134.500 15 -1 16 283
1995277N07141 1995 76 WP MM TED 1995-10-04 15:00:00 NR 7.59241 133.728 main 783 705 P_____________ WP241995 7.59241 133.728 15 -1 15 285
1995277N07141 1995 76 WP MM TED 1995-10-04 18:00:00 NR 7.80000 133.000 main 705 640 O_____________ jtwc_wp WP241995 7.80000 133.000 15 -1 15 286
1995277N07141 1995 76 WP MM TED 1995-10-04 21:00:00 NR 7.98489 132.320 main 629 564 P_____________ WP241995 7.98489 132.320 15 -1 14 287
1995277N07141 1995 76 WP MM TED 1995-10-05 00:00:00 NR 8.20000 131.700 main 564 503 O_____________ jtwc_wp WP241995 8.20000 131.700 15 -1 13 293
1995277N07141 1995 76 WP MM TED 1995-10-05 03:00:00 NR 8.48494 131.113 main 503 457 P_____________ WP241995 8.48494 131.113 15 -1 12 299
1995277N07141 1995 76 WP MM TED 1995-10-05 06:00:00 NR 8.80000 130.600 main 457 426 O_____________ jtwc_wp WP241995 8.80000 130.600 15 -1 11 303
1995277N07141 1995 76 WP MM TED 1995-10-05 09:00:00 NR 9.09992 130.162 main 426 390 P_____________ WP241995 9.09992 130.162 15 -1 10 307
1995277N07141 1995 76 WP MM TED 1995-10-05 12:00:00 NR 9.40000 129.800 main 390 362 O_____________ jtwc_wp WP241995 9.40000 129.800 15 -1 9 312
1995277N07141 1995 76 WP MM TED 1995-10-05 15:00:00 NR 9.69243 129.485 main 365 338 P_____________ WP241995 9.69243 129.485 15 -1 8 315
1995277N07141 1995 76 WP MM TED 1995-10-05 18:00:00 NR 10.0000 129.200 main 341 320 O_____________ jtwc_wp WP241995 10.0000 129.200 15 -1 9 318
1995277N07141 1995 76 WP MM TED 1995-10-05 21:00:00 NR 10.3425 128.892 main 320 306 P_____________ WP241995 10.3425 128.892 15 -1 9 320
1995277N07141 1995 76 WP MM TED 1995-10-06 00:00:00 NR 10.7000 128.600 main 307 284 O_____________ jtwc_wp WP241995 10.7000 128.600 15 -1 9 323
1995277N07141 1995 76 WP MM TED 1995-10-06 03:00:00 NR 11.0499 128.350 main 273 253 P_____________ WP241995 11.0499 128.350 15 -1 9 325
1995277N07141 1995 76 WP MM TED 1995-10-06 06:00:00 NR 11.4000 128.100 main 255 231 O_____________ jtwc_wp WP241995 11.4000 128.100 15 -1 9 324
1995277N07141 1995 76 WP MM TED 1995-10-06 09:00:00 NR 11.7650 127.815 main 235 217 P_____________ WP241995 11.7650 127.815 15 -1 9 320
1995277N07141 1995 76 WP MM TED 1995-10-06 12:00:00 NR 12.1000 127.500 main 217 185 O_____________ jtwc_wp WP241995 12.1000 127.500 15 -1 9 315
1995277N07141 1995 76 WP MM TED 1995-10-06 15:00:00 NR 12.3874 127.180 main 186 148 P_____________ WP241995 12.3874 127.180 17 -1 9 306
1995277N07141 1995 76 WP MM TED 1995-10-06 18:00:00 NR 12.6000 126.800 main 148 103 O_____________ jtwc_wp WP241995 12.6000 126.800 20 -1 9 292
1995277N07141 1995 76 WP MM TED 1995-10-06 21:00:00 NR 12.7225 126.322 main 103 79 P_____________ WP241995 12.7225 126.322 20 -1 10 284
1995277N07141 1995 76 WP MM TED 1995-10-07 00:00:00 TS 12.8400 125.840 1008 tokyo main 70 55 OO____________ jtwc_wp WP241995 12.8000 125.800 20 -1 13.0000 126.000 2 1008 0 0 0 10 285
1995277N07141 1995 76 WP MM TED 1995-10-07 03:00:00 TS 12.9767 125.373 main 60 55 PP____________ WP241995 12.8999 125.307 20 -1 13.1303 125.505 2 1008 0 0 10 287
1995277N07141 1995 76 WP MM TED 1995-10-07 06:00:00 TS 13.1286 124.886 1008 tokyo main 67 31 OO____________ jtwc_wp WP241995 13.0000 124.800 20 -1 13.3000 125.000 2 1008 0 0 0 11 289
1995277N07141 1995 76 WP MM TED 1995-10-07 09:00:00 TS 13.3173 124.355 main 31 11 PP____________ WP241995 13.1000 124.250 20 -1 13.5346 124.460 2 1008 0 0 12 289
1995277N07141 1995 76 WP MM TED 1995-10-07 12:00:00 TS 13.5000 123.750 1008 tokyo main 15 0 OO____________ jtwc_wp WP241995 13.2000 123.700 20 -1 13.8000 123.800 2 1008 0 0 0 13 285
1995277N07141 1995 76 WP MM TED 1995-10-07 15:00:00 TS 13.6715 123.035 main 0 0 PP____________ WP241995 13.2700 123.170 20 -1 14.0731 122.900 2 1008 0 0 14 284
1995277N07141 1995 76 WP MM TED 1995-10-07 18:00:00 TS 13.8500 122.350 1008 tokyo main 0 0 OO____________ jtwc_wp WP241995 13.4000 122.700 20 -1 14.3000 122.000 2 1008 0 0 0 12 288
1995277N07141 1995 76 WP MM TED 1995-10-07 21:00:00 TS 14.0459 121.834 main 0 0 PP____________ WP241995 13.6773 122.328 20 -1 14.4145 121.340 2 1008 0 0 10 293
1995277N07141 1995 76 WP MM TED 1995-10-08 00:00:00 TS 14.2500 121.400 1008 tokyo main 0 0 OO____________ jtwc_wp WP241995 14.0000 122.000 20 -1 14.5000 120.800 2 1008 0 0 0 9 296
1995277N07141 1995 76 WP MM TED 1995-10-08 03:00:00 TS 14.4497 120.994 main 0 0 PP____________ WP241995 14.2498 121.680 20 -1 14.6496 120.307 2 1007 0 0 9 296
1995277N07141 1995 76 WP MM TED 1995-10-08 06:00:00 TS 14.6500 120.550 1006 tokyo main 0 0 OO____________ jtwc_wp WP241995 14.5000 121.300 20 -1 14.8000 119.800 2 1006 0 0 0 11 293
1995277N07141 1995 76 WP MM TED 1995-10-08 09:00:00 TS 14.8649 119.988 main 10 10 PP____________ WP241995 14.8223 120.810 20 -1 14.9076 119.165 2 1006 0 0 14 287
1995277N07141 1995 76 WP MM TED 1995-10-08 12:00:00 TS 15.0444 119.200 1006 tokyo main 87 82 OOO___________ jtwc_wp WP241995 15.1000 120.200 20 -1 15.0000 118.500 2 1006 0 0 0 15.0000 118.000 1 29 1004 14 281
1995277N07141 1995 76 WP MM TED 1995-10-08 15:00:00 TS 15.1353 118.580 main 143 143 PPP___________ WP241995 15.2299 119.495 20 -1 15.1147 117.900 2 1006 0 0 14.9874 118.110 1 29 1004 12 277
1995277N07141 1995 76 WP MM TED 1995-10-08 18:00:00 TS 15.1818 118.000 1006 tokyo main 202 202 OOO___________ jtwc_wp WP241995 15.3000 118.700 20 -1 15.2000 117.300 2 1006 0 0 0 15.0000 118.000 1 29 1004 12 274
1995277N07141 1995 76 WP MM TED 1995-10-08 21:00:00 TS 15.2266 117.345 main 272 272 PPP___________ WP241995 15.4076 117.843 22 -1 15.2222 116.672 2 1005 0 0 15.0500 117.520 1 29 1004 13 273
1995277N07141 1995 76 WP MM TED 1995-10-09 00:00:00 TS 15.2462 116.615 1004 tokyo main 343 343 OOOO__________ jtwc_wp WP241995 15.5000 117.000 25 -1 15.2000 116.000 2 1004 0 0 0 15.1000 116.800 1 29 1004 15.0000 116.800 TD 25 1004 14 270
1995277N07141 1995 76 WP MM TED 1995-10-09 03:00:00 TS 15.2350 115.848 main 427 427 PPPP__________ WP241995 15.5647 116.262 27 -1 15.1650 115.258 2 1004 0 0 15.1149 116.037 1 29 1004 14.9559 115.822 TD 25 1004 15 268
1995277N07141 1995 76 WP MM TED 1995-10-09 06:00:00 TS 15.1933 115.060 1004 tokyo main 500 500 OOOO__________ jtwc_wp WP241995 15.6000 115.600 30 -1 15.1000 114.500 2 1004 0 0 0 15.1000 115.200 1 29 1004 14.9000 114.900 TD 25 1004 15 266
1995277N07141 1995 76 WP MM TED 1995-10-09 09:00:00 TS 15.1212 114.280 main 555 482 PPPP__________ WP241995 15.5998 114.977 30 -1 14.9925 113.755 2 1004 0 0 15.0578 114.305 1 29 1003 14.8348 114.082 TD 25 1004 14 265
1995277N07141 1995 76 WP MM TED 1995-10-09 12:00:00 TS 15.0750 113.600 1004 tokyo main 482 430 OOOO__________ jtwc_wp WP241995 15.6000 114.400 30 -1 14.9000 113.100 2 1004 0 0 0 15.0000 113.500 1 29 1002 14.8000 113.400 TD 25 1004 12 268
1995277N07141 1995 76 WP MM TED 1995-10-09 15:00:00 TS 15.0703 113.053 main 430 378 PPPP__________ WP241995 15.6349 113.835 30 -1 14.8847 112.598 2 1004 0 0 14.9345 112.940 1 29 1002 14.8272 112.840 TD 25 1004 10 271
1995277N07141 1995 76 WP MM TED 1995-10-09 18:00:00 TS 15.1000 112.600 1004 tokyo main 378 336 OOOO__________ jtwc_wp WP241995 15.7000 113.300 30 -1 14.9000 112.200 2 1004 0 0 0 14.9000 112.500 1 29 1002 14.9000 112.400 TD 25 1004 9 275
1995277N07141 1995 76 WP MM TED 1995-10-09 21:00:00 TS 15.1493 112.150 main 336 295 PPPP__________ WP241995 15.7925 112.770 32 -1 14.8925 111.812 2 1004 0 0 14.9275 112.005 1 29 1001 14.9849 112.012 TD 27 1002 8 279
1995277N07141 1995 76 WP MM TED 1995-10-10 00:00:00 TS 15.2250 111.775 1004 tokyo main 295 266 OOOO__________ jtwc_wp WP241995 15.9000 112.300 35 0 14.9000 111.500 2 1004 0 0 0 15.0000 111.600 1 29 1000 15.1000 111.700 TD 30 1000 6 284
1995277N07141 1995 76 WP MM TED 1995-10-10 03:00:00 TS 15.3099 111.499 main 266 248 PPPP__________ WP241995 15.9999 111.920 35 0 14.9124 111.285 2 1003 0 0 15.0849 111.347 1 29 1000 15.2424 111.442 TD 30 1000 5 292
1995277N07141 1995 76 WP MM TED 1995-10-10 06:00:00 TS 15.4250 111.275 1002 tokyo main 248 227 OOOO__________ jtwc_wp WP241995 16.1000 111.600 35 0 15.0000 111.100 2 1002 0 0 0 15.2000 111.200 1 29 1000 15.4000 111.200 TD 30 1000 5 300
1995277N07141 1995 76 WP MM TED 1995-10-10 09:00:00 TS 15.5669 111.034 main 227 211 PPPP__________ WP241995 16.1925 111.285 37 0 15.2125 110.843 2 1002 0 0 15.3199 111.107 1 31 999 15.5425 110.900 TD 30 1000 6 305
1995277N07141 1995 76 WP MM TED 1995-10-10 12:00:00 TS 15.7500 110.800 1002 tokyo main 214 198 OOOO__________ jtwc_wp WP241995 16.3000 111.000 40 0 15.5000 110.600 2 1002 0 0 0 15.5000 111.000 2 34 998 15.7000 110.600 TD 30 1000 6 314
1995277N07141 1995 76 WP MM TED 1995-10-10 15:00:00 TS 15.9856 110.581 main 202 189 PPPP__________ WP241995 16.4425 110.735 42 0 15.8074 110.457 2 1001 0 0 15.7925 110.788 2 34 998 15.8999 110.342 TD 30 1000 6 318
1995277N07141 1995 76 WP MM TED 1995-10-10 18:00:00 TS 16.2250 110.350 35 1000 tokyo main 195 185 OOOO__________ jtwc_wp WP241995 16.6000 110.500 45 0 16.1000 110.300 3 35 1000 0 7 90 60 0 16.1000 110.500 2 34 998 16.1000 110.100 TD 30 1000 6 312
1995277N07141 1995 76 WP MM TED 1995-10-10 21:00:00 TS 16.4112 110.081 main 185 168 PPPP__________ WP241995 16.7575 110.285 47 0 16.3151 110.015 3 35 1000 0 7 90 60 16.3150 110.172 2 34 998 16.2575 109.850 TD 30 1000 6 304
1995277N07141 1995 76 WP MM TED 1995-10-11 00:00:00 TS 16.5750 109.800 35 1000 tokyo main 173 150 OOOO__________ jtwc_wp WP241995 16.9000 110.100 50 0 16.5000 109.700 3 35 1000 0 7 90 60 0 16.5000 109.800 2 34 998 16.4000 109.600 TD 30 1000 6 302
1995277N07141 1995 76 WP MM TED 1995-10-11 03:00:00 TS 16.7375 109.530 main 150 146 PPPP__________ WP241995 17.0075 109.942 52 0 16.6999 109.442 3 35 1000 0 7 90 60 16.7000 109.392 2 34 998 16.5425 109.342 TD 30 1000 6 303
1995277N07141 1995 76 WP MM TED 1995-10-11 06:00:00 TS 16.9000 109.275 35 1000 tokyo main 146 130 OOOO__________ jtwc_wp WP241995 17.1000 109.800 55 0 16.9000 109.200 3 35 1000 0 7 90 60 0 16.9000 109.000 2 34 998 16.7000 109.100 TD 30 1000 6 305
1995277N07141 1995 76 WP MM TED 1995-10-11 09:00:00 TS 17.0731 109.033 main 134 128 PPPP__________ WP241995 17.2000 109.650 60 0 17.1000 108.935 3 37 999 0 7 90 75 17.1000 108.655 2 34 998 16.8925 108.892 TD 32 999 6 309
1995277N07141 1995 76 WP MM TED 1995-10-11 12:00:00 TS 17.2500 108.825 40 998 tokyo main 124 116 OOOO__________ jtwc_wp WP241995 17.3000 109.500 65 1 17.3000 108.700 3 40 998 0 9 90 90 0 17.3000 108.400 2 34 998 17.1000 108.700 TS 35 998 5 314
1995277N07141 1995 76 WP MM TED 1995-10-11 15:00:00 TS 17.4212 108.658 main 116 99 PPPP__________ WP241995 17.3925 109.350 67 1 17.5000 108.527 3 40 998 0 9 90 90 17.4999 108.270 2 36 996 17.2925 108.485 TS 35 998 5 321
1995277N07141 1995 76 WP MM TED 1995-10-11 18:00:00 TS 17.6000 108.525 40 998 tokyo main 102 84 OOOO__________ jtwc_wp WP241995 17.5000 109.200 70 1 17.7000 108.400 3 40 998 0 9 90 90 0 17.7000 108.200 2 38 995 17.5000 108.300 TS 35 998 5 327
1995277N07141 1995 76 WP MM TED 1995-10-11 21:00:00 TS 17.7981 108.401 main 84 70 PPPP__________ WP241995 17.6424 109.065 72 1 17.9000 108.278 3 42 997 0 9 95 95 17.9075 108.093 2 41 992 17.7425 108.170 TS 37 996 5 332
1995277N07141 1995 76 WP MM TED 1995-10-12 00:00:00 TS 18.0000 108.300 45 996 tokyo main 70 61 OOOO__________ jtwc_wp WP241995 17.8000 108.900 75 1 18.1000 108.200 3 45 996 0 9 100 100 0 18.1000 108.000 2 44 990 18.0000 108.100 TS 40 994 4 334
1995277N07141 1995 76 WP MM TED 1995-10-12 03:00:00 TS 18.1819 108.208 main 62 53 PPPP__________ WP241995 17.9350 108.657 75 1 18.2925 108.163 3 47 993 0 9 100 100 18.2500 107.928 2 46 987 18.2500 108.085 TS 40 994 4 339
1995277N07141 1995 76 WP MM TED 1995-10-12 06:00:00 TS 18.3750 108.150 50 990 tokyo main 53 53 OOOO__________ jtwc_wp WP241995 18.1000 108.400 75 1 18.5000 108.200 4 50 990 0 9 100 100 0 18.4000 107.900 3 48 985 18.5000 108.100 TS 40 994 4 348
1995277N07141 1995 76 WP MM TED 1995-10-12 09:00:00 TS 18.5769 108.126 main 63 63 PPPP__________ WP241995 18.2975 108.148 75 1 18.7201 108.342 4 50 990 0 9 100 100 18.5475 107.920 3 48 985 18.7425 108.093 TS 42 992 5 0
1995277N07141 1995 76 WP MM TED 1995-10-12 12:00:00 TS 18.8500 108.150 50 990 tokyo main 52 43 OOOO__________ jtwc_wp WP241995 18.6000 108.000 75 1 19.0000 108.500 4 50 990 0 9 100 100 0 18.8000 108.000 3 48 985 19.0000 108.100 TS 45 990 7 7
1995277N07141 1995 76 WP MM TED 1995-10-12 15:00:00 TS 19.2450 108.222 main 43 33 PPPP__________ WP241995 19.0700 108.047 72 1 19.3775 108.573 4 47 991 0 9 100 100 19.2625 108.135 3 48 985 19.2700 108.135 TS 45 990 9 11
1995277N07141 1995 76 WP MM TED 1995-10-12 18:00:00 TS 19.7000 108.325 45 992 tokyo main 53 53 OOOO__________ jtwc_wp WP241995 19.6000 108.200 70 1 19.8000 108.600 3 45 992 0 9 100 100 0 19.8000 108.300 3 48 985 19.6000 108.200 TS 45 990 9 12
1995277N07141 1995 76 WP MM TED 1995-10-12 21:00:00 TS 20.1375 108.414 main 84 84 PPPP__________ WP241995 20.0575 108.328 67 1 20.1925 108.585 3 45 993 0 9 90 90 20.2725 108.458 3 48 985 20.0275 108.285 TS 42 992 9 12
1995277N07141 1995 76 WP MM TED 1995-10-13 00:00:00 TS 20.5750 108.525 45 994 tokyo main 105 67 OOOO__________ jtwc_wp WP241995 20.5000 108.500 65 1 20.6000 108.600 3 45 994 0 9 80 80 0 20.7000 108.600 3 48 985 20.5000 108.400 TS 40 994 9 15
1995277N07141 1995 76 WP MM TED 1995-10-13 03:00:00 TS 21.0093 108.661 main 67 22 PPPP__________ WP241995 20.9576 108.750 65 1 21.0574 108.705 3 42 995 0 9 70 70 21.0649 108.670 3 48 987 20.9574 108.520 TS 40 994 9 20
1995277N07141 1995 76 WP MM TED 1995-10-13 06:00:00 TS 21.4250 108.850 40 996 tokyo main 22 0 OOOO__________ jtwc_wp WP241995 21.4000 109.000 65 1 21.5000 108.900 3 40 996 0 9 60 60 0 21.4000 108.800 3 48 990 21.4000 108.700 TS 40 994 9 25
1995277N07141 1995 76 WP MM TED 1995-10-13 09:00:00 TS 21.8241 109.071 main 0 0 PPPP__________ WP241995 21.8223 109.128 60 0 21.8950 109.170 3 998 0 9 21.7721 109.053 3 41 994 21.8072 108.933 TS 37 996 9 35
1995277N07141 1995 76 WP MM TED 1995-10-13 12:00:00 TS 22.1733 109.407 1000 tokyo main 0 0 OOOO__________ jtwc_wp WP241995 22.2000 109.300 55 0 22.2000 109.500 2 1000 0 0 0 22.1000 109.500 2 34 998 22.2000 109.300 TS 35 998 10 52
1995277N07141 1995 76 WP MM TED 1995-10-13 15:00:00 TS 22.4380 109.923 main 0 0 PPPP__________ WP241995 22.5452 109.670 45 0 22.3875 109.850 2 1002 0 0 22.3013 110.287 2 26 1000 22.5983 109.847 TS 32 999 11 64
1995277N07141 1995 76 WP MM TED 1995-10-13 18:00:00 TS 22.6308 110.438 1004 tokyo main 0 0 OOOO__________ jtwc_wp WP241995 22.8000 110.100 35 0 22.5000 110.200 2 1004 0 0 0 22.5000 111.000 0 19 1003 23.0000 110.500 TD 30 1000 8 63
1995277N07141 1995 76 WP MM TED 1995-10-13 21:00:00 TS 22.8055 110.704 main 0 0 PPP___________ WP241995 22.9523 110.450 30 -1 22.6299 110.507 2 1005 0 0 22.8342 111.153 0 18 1004 TD 5 54
1995277N07141 1995 76 WP MM TED 1995-10-14 00:00:00 TS 22.9455 110.909 1006 tokyo main 0 0 OOO___________ jtwc_wp WP241995 23.0000 110.800 25 -1 22.7000 110.800 2 1006 0 0 0 23.2000 111.200 0 17 1005 5 69
1995277N07141 1995 76 WP MM TED 1995-10-14 03:00:00 TS 22.9825 111.209 main 0 0 PPP___________ WP241995 23.0026 111.207 25 -1 22.6947 111.062 2 1006 0 0 23.5182 111.507 0 17 1005 6 94
1995277N07141 1995 76 WP MM TED 1995-10-14 06:00:00 TS 22.9000 111.571 1006 tokyo main 0 0 OOO___________ jtwc_wp WP241995 22.9000 111.600 25 -1 22.6000 111.400 2 1006 0 0 0 23.8000 112.000 0 17 1005 8 124
1995277N07141 1995 76 WP MM TED 1995-10-14 09:00:00 TS 22.5528 111.912 main 0 0 PP____________ WP241995 22.6825 111.923 22 -1 22.4232 111.901 2 1007 0 0 0 9 130
1995277N07141 1995 76 WP MM TED 1995-10-14 12:00:00 TS 22.3000 112.350 1008 tokyo main 0 OO____________ jtwc_wp WP241995 22.4000 112.200 20 -1 22.2000 112.500 2 1008 0 0 0 10 122

デジタル台風データ・検索

IBTrACS Databaseについて

本データベースは、米国NOAAが公開する1842年以降の世界の熱帯低気圧のベストトラックデータアーカイブInternational Best Track Archive for Climate Stewardship (IBTrACS)を、ウェブで閲覧しやすい形式に変換したものです。

最終更新日:2021-12-03